HOURLY OBS INDEX

011

Eucla

EUCLA

Site: 011003
Alt: 93.1m
1km SW of EUCLA


  Time     Wind        Temp  DP   Baro     Rain since   Rain past  Vis(m), Cloud(base in m), Weather
  local        km/h                         9am  last   hr   10m    
Tue 18:00    W 13/ 19  12.1  8.8  1023.5    1.4   0.0   0.0   0.0   ----- 
Tue 18:30    W 13/ 19  11.9  9.1  1023.8    1.4   0.0   0.0   0.0   ----- 
Tue 19:00    W 13/ 26  11.7  9.1  1024.0    1.4   0.0   0.0   0.0   ----- 
Tue 19:30    W 15/ 20  11.6  8.5  1024.1    1.4   0.0   0.0   0.0   ----- 
Tue 20:00    W 17/ 26  11.4  8.4  1024.6    1.4   0.0   0.0   0.0   ----- 
Tue 20:30    W 15/ 24  11.4  8.6  1024.6    1.4   0.0   0.0   0.0   ----- 
Tue 21:00    W 15/ 24  11.0  8.6  1024.6    1.4   0.0   0.0   0.0   ----- 
Tue 21:30    W 13/ 19  10.5  8.1  1024.7    1.4   0.0   0.0   0.0   ----- 
Tue 22:00    W 15/ 24  10.4  8.3  1024.9    1.4   0.0   0.0   0.0   ----- 
Tue 22:30  WNW 11/ 15  10.4  8.5  1024.8    1.4   0.0   0.0   0.0   ----- 
Tue 23:00    W 11/ 17  10.2  8.3  1024.9    1.4   0.0   0.0   0.0   ----- 
Tue 23:00    W 11/ 17  10.2  8.3  1024.9    1.4   0.0  ----   0.0   ----- 

FORREST

Site: 011052
Alt: 159.0m
118km NW of EUCLA


  Time     Wind        Temp  DP   Baro     Rain since   Rain past  Vis(m), Cloud(base in m), Weather
  local        km/h                         9am  last   hr   10m    
Tue 18:00    W 17/ 19   8.5  5.8  1024.2    0.6   0.0   0.0   0.0   ----- 
Tue 18:30    W 17/ 17   7.7  5.3  1024.6    0.6   0.0   0.0   0.0   ----- 
Tue 19:00    W 17/ 19   7.5  5.5  1025.0    0.6   0.0   0.0   0.0   ----- 
Tue 19:30    W 17/ 19   7.3  5.3  1025.2    0.6   0.0   0.0   0.0   ----- 
Tue 20:00    W 17/ 19   7.2  5.2  1025.4    0.6   0.0   0.0   0.0   ----- 
Tue 20:30    W 17/ 19   7.0  5.2  1025.6    0.6   0.0   0.0   0.0   ----- 
Tue 21:00    W 17/ 19   6.8  5.0  1025.8    0.6   0.0   0.0   0.0   ----- 
Tue 21:30    W 15/ 17   6.2  4.7  1025.9    0.6   0.0   0.0   0.0   ----- 
Tue 22:00    W 15/ 15   5.6  4.2  1025.9    0.6   0.0   0.0   0.0   ----- 
Tue 22:30    W 13/ 15   5.1  3.9  1026.0    0.6   0.0   0.0   0.0   ----- 
Tue 23:00    W 15/ 17   5.4  4.4  1026.0    0.6   0.0   0.0   0.0   ----- 
Tue 23:00    W 15/ 17   5.4  4.4  1026.0    0.6   0.0  ----   0.0   ----- 

RED ROCKS POINT

Site: 011053
Alt: 3.1m
141km WSW of EUCLA


  Time     Wind        Temp  DP   Baro     Rain since   Rain past  Vis(m), Cloud(base in m), Weather
  local        km/h                         9am  last   hr   10m    
Tue 18:00   NW 11/ 15  11.4  9.8  1023.8    1.4   0.0   0.0   0.0   ----- 
Tue 18:30   NW  9/ 11  11.3  9.9  1024.1    1.8   0.4   0.4   0.2   ----- 
Tue 19:00    W 11/ 15  11.6 10.2  1024.7    2.0   0.2   0.6   0.2   ----- 
Tue 19:30   SW 19/ 35  12.5 11.2  1024.9    3.4   1.4   1.6   0.4   ----- 
Tue 20:00    W 11/ 17  11.6 10.2  1024.9    3.4   0.0   1.4   0.0   ----- 
Tue 20:30   SW 15/ 20  12.0 10.6  1024.9    3.4   0.0   0.0   0.0   ----- 
Tue 21:00    W 13/ 24  12.1 10.7  1025.3    3.4   0.0   0.0   0.0   ----- 
Tue 21:30   SW 11/ 19  12.2 10.9  1025.4    3.6   0.2   0.2   0.0   ----- 
Tue 22:00  WNW  9/ 15  11.2  9.8  1025.4    3.6   0.0   0.2   0.0   ----- 
Tue 22:30   NW 13/ 17  10.2  9.0  1025.3    3.6   0.0   0.0   0.0   ----- 
Tue 23:00   NW 15/ 17   9.6  8.4  1025.4    3.6   0.0   0.0   0.0   ----- 
Tue 23:00   NW 15/ 17   9.6  8.4  1025.4    3.6   0.0  ----   0.0   -----